Time;durP1;ratioP1;P1;durP2;ratioP2;P2;SDS_P1;SDS_P2;PMS_P1;PMS_P2;Temp;Humidity;BMP_temperature;BMP_pressure;BME280_temperature;BME280_humidity;BME280_pressure;Samples;Min_cycle;Max_cycle;Signal;HPM_P1;HPM_P2
2022/03/12 00:02:17;;;;;;;23.80;11.13;;;5.40;49.50;;;;;;5006063;28;20484;-75
2022/03/12 00:04:44;;;;;;;26.98;11.50;;;5.40;49.70;;;;;;4995474;28;20547;-76
2022/03/12 00:07:12;;;;;;;24.92;12.13;;;5.40;49.90;;;;;;4994782;28;20100;-76
2022/03/12 00:09:38;;;;;;;30.40;11.45;;;5.40;50.00;;;;;;4996894;28;20409;-76
2022/03/12 00:12:04;;;;;;;23.80;11.85;;;5.30;50.20;;;;;;4996353;28;20030;-77
2022/03/12 00:14:33;;;;;;;27.73;10.93;;;5.30;50.10;;;;;;4995473;28;20022;-74
2022/03/12 00:16:58;;;;;;;23.05;10.63;;;5.30;50.20;;;;;;4995428;28;20484;-76
2022/03/12 00:19:24;;;;;;;25.50;11.50;;;5.30;50.40;;;;;;4995002;28;20040;-76
2022/03/12 00:21:50;;;;;;;28.08;12.07;;;5.20;50.30;;;;;;4994785;28;20025;-75
2022/03/12 00:24:17;;;;;;;24.30;10.93;;;5.20;50.50;;;;;;4994871;28;20026;-74
2022/03/12 00:26:46;;;;;;;26.48;10.63;;;5.30;50.70;;;;;;4993460;28;20511;-76
2022/03/12 00:29:15;;;;;;;28.92;11.45;;;5.20;50.70;;;;;;4995376;28;20026;-76
2022/03/12 00:31:42;;;;;;;22.90;10.63;;;5.20;50.80;;;;;;4995030;28;20571;-75
2022/03/12 00:34:08;;;;;;;25.35;11.10;;;5.20;51.30;;;;;;4997082;28;20038;-74
2022/03/12 00:36:34;;;;;;;26.38;11.13;;;5.10;51.00;;;;;;4998634;28;20026;-79
2022/03/12 00:39:00;;;;;;;27.75;11.32;;;5.10;51.10;;;;;;5000157;28;20080;-78
2022/03/12 00:41:26;;;;;;;26.35;10.95;;;5.10;51.20;;;;;;5002920;28;20053;-78
2022/03/12 00:43:52;;;;;;;25.05;11.40;;;5.10;51.20;;;;;;5007365;28;20026;-78
2022/03/12 00:46:19;;;;;;;29.20;11.35;;;5.00;51.40;;;;;;5012939;28;20031;-76
2022/03/12 00:48:45;;;;;;;23.30;11.93;;;5.00;51.90;;;;;;5011613;28;20522;-78
2022/03/12 00:51:11;;;;;;;23.48;11.15;;;4.90;51.30;;;;;;5010372;28;20022;-78
2022/03/12 00:53:38;;;;;;;30.67;11.32;;;5.00;51.30;;;;;;5001909;28;20029;-76
2022/03/12 00:56:05;;;;;;;26.63;10.98;;;5.00;51.30;;;;;;4996752;28;20026;-76
2022/03/12 00:58:31;;;;;;;24.40;11.63;;;5.00;51.40;;;;;;5005532;28;20038;-78
2022/03/12 01:00:56;;;;;;;28.67;12.20;;;4.90;51.40;;;;;;5001694;28;20030;-76
2022/03/12 01:03:22;;;;;;;24.75;11.60;;;4.90;51.30;;;;;;5007124;28;20030;-76
2022/03/12 01:05:47;;;;;;;24.83;11.82;;;4.90;51.60;;;;;;5011904;28;20112;-75
2022/03/12 01:08:14;;;;;;;25.30;11.18;;;4.80;51.80;;;;;;5004669;28;20087;-78
2022/03/12 01:10:40;;;;;;;33.97;12.27;;;4.70;51.50;;;;;;4996879;28;20022;-77
2022/03/12 01:13:06;;;;;;;26.52;11.63;;;4.70;51.90;;;;;;4996504;28;20271;-79
2022/03/12 01:15:32;;;;;;;25.73;11.35;;;4.60;51.80;;;;;;5001107;28;20023;-75
2022/03/12 01:17:58;;;;;;;25.73;11.88;;;4.60;51.80;;;;;;4994414;28;20026;-76
2022/03/12 01:20:24;;;;;;;31.52;12.07;;;4.60;52.00;;;;;;4994936;28;20042;-76
2022/03/12 01:22:49;;;;;;;21.88;10.60;;;4.60;52.00;;;;;;4993481;28;20495;-75
2022/03/12 01:25:15;;;;;;;29.80;11.25;;;4.50;52.10;;;;;;4994011;28;20034;-75
2022/03/12 01:27:41;;;;;;;24.05;11.60;;;4.50;52.00;;;;;;4995264;28;20558;-75
2022/03/12 01:30:07;;;;;;;26.67;11.35;;;4.50;52.00;;;;;;4996109;28;20030;-74
2022/03/12 01:32:34;;;;;;;24.77;9.88;;;4.50;51.90;;;;;;4995863;28;20033;-76
2022/03/12 01:35:00;;;;;;;26.08;11.23;;;4.50;51.70;;;;;;4995060;28;20026;-76
2022/03/12 01:37:25;;;;;;;22.73;11.18;;;4.50;51.70;;;;;;4994629;28;20105;-76
2022/03/12 01:39:51;;;;;;;24.35;11.00;;;4.60;51.80;;;;;;4993635;28;20031;-76
2022/03/12 01:42:20;;;;;;;26.33;12.02;;;4.50;51.90;;;;;;4993519;28;20026;-74
2022/03/12 01:44:46;;;;;;;31.40;11.52;;;4.50;51.80;;;;;;4993396;28;20046;-75
2022/03/12 01:47:15;;;;;;;25.77;10.68;;;4.40;51.50;;;;;;4993925;28;20116;-75
2022/03/12 01:49:41;;;;;;;22.45;10.93;;;4.50;51.60;;;;;;4994425;28;20092;-75
2022/03/12 01:52:10;;;;;;;23.15;11.50;;;4.40;51.60;;;;;;4995211;28;20548;-76
2022/03/12 01:54:39;;;;;;;36.67;11.75;;;4.40;51.50;;;;;;4999042;28;20023;-76
2022/03/12 01:57:04;;;;;;;23.77;11.32;;;4.40;51.40;;;;;;4992771;28;20042;-75
2022/03/12 01:59:30;;;;;;;22.85;10.95;;;4.40;51.60;;;;;;4993000;28;20065;-76
2022/03/12 02:01:57;;;;;;;25.88;10.38;;;4.40;51.60;;;;;;4993202;28;20069;-75
2022/03/12 02:04:23;;;;;;;26.30;10.63;;;4.30;51.50;;;;;;4997814;28;20026;-76
2022/03/12 02:06:51;;;;;;;24.13;10.60;;;4.30;51.50;;;;;;4993595;28;20018;-76
2022/03/12 02:09:17;;;;;;;26.55;10.50;;;4.30;51.50;;;;;;4992622;28;20475;-76
2022/03/12 02:11:52;;;;;;;27.98;10.80;;;4.30;51.50;;;;;;4992598;28;20091;-76
2022/03/12 02:14:24;;;;;;;26.85;10.88;;;4.30;51.50;;;;;;4993177;28;20042;-76
2022/03/12 02:17:01;;;;;;;22.13;10.52;;;4.40;51.40;;;;;;4992456;28;20030;-76
2022/03/12 02:19:28;;;;;;;25.27;10.23;;;4.30;51.30;;;;;;5007255;28;20377;-79
2022/03/12 02:21:57;;;;;;;28.67;11.10;;;4.30;51.40;;;;;;5005990;28;20533;-77
2022/03/12 02:24:28;;;;;;;23.60;10.55;;;4.20;51.50;;;;;;5003726;28;20109;-79
2022/03/12 02:26:55;;;;;;;25.92;11.30;;;4.20;51.60;;;;;;5006503;28;20034;-77
2022/03/12 02:29:24;;;;;;;25.65;11.50;;;4.20;51.60;;;;;;5000695;28;20396;-77
2022/03/12 02:31:54;;;;;;;30.30;10.80;;;4.20;51.60;;;;;;4993047;28;20427;-75
2022/03/12 02:34:23;;;;;;;25.50;11.57;;;4.20;51.70;;;;;;4992987;28;20101;-76
2022/03/12 02:36:55;;;;;;;25.00;10.73;;;4.20;51.60;;;;;;4993117;28;20092;-75
2022/03/12 02:39:21;;;;;;;20.88;10.25;;;4.10;51.60;;;;;;4996089;28;20104;-75
2022/03/12 02:41:48;;;;;;;21.23;9.85;;;4.10;51.70;;;;;;4995288;28;20023;-75
2022/03/12 02:44:22;;;;;;;27.42;10.60;;;4.00;51.60;;;;;;4992656;28;20026;-76
2022/03/12 02:47:14;;;;;;;28.63;11.55;;;4.00;51.60;;;;;;4992514;28;20056;-75
2022/03/12 02:49:48;;;;;;;24.02;10.60;;;4.00;51.60;;;;;;4992192;28;20061;-77
2022/03/12 02:52:15;;;;;;;33.42;10.55;;;4.00;51.60;;;;;;4992850;28;20292;-76
2022/03/12 02:54:41;;;;;;;25.00;10.88;;;3.90;51.50;;;;;;4995927;28;20057;-79
2022/03/12 02:57:10;;;;;;;24.20;10.35;;;3.90;51.60;;;;;;4996450;28;20109;-76
2022/03/12 02:59:37;;;;;;;24.67;11.07;;;3.90;51.80;;;;;;4991876;28;20416;-75
2022/03/12 03:02:07;;;;;;;26.05;11.00;;;3.80;52.00;;;;;;4992237;28;20623;-75
2022/03/12 03:04:34;;;;;;;30.58;10.75;;;3.90;52.10;;;;;;4990935;28;20411;-76
2022/03/12 03:07:02;;;;;;;28.05;10.55;;;3.90;52.00;;;;;;4973644;28;20029;-74
2022/03/12 03:09:27;;;;;;;31.25;10.38;;;3.90;51.80;;;;;;4991916;28;20057;-75
2022/03/12 03:11:54;;;;;;;25.52;10.95;;;3.80;51.80;;;;;;4992523;28;20476;-74
2022/03/12 03:14:26;;;;;;;45.67;11.05;;;3.80;51.80;;;;;;4992317;28;20521;-74
2022/03/12 03:16:59;;;;;;;24.30;10.95;;;3.80;51.60;;;;;;4991940;28;20023;-76
2022/03/12 03:19:26;;;;;;;28.38;10.88;;;3.70;51.80;;;;;;4992816;28;20089;-76
2022/03/12 03:21:56;;;;;;;23.75;11.05;;;3.70;51.80;;;;;;4995667;28;20022;-75
2022/03/12 03:24:22;;;;;;;20.20;10.20;;;3.70;51.80;;;;;;4995442;28;20026;-75
2022/03/12 03:26:50;;;;;;;23.20;10.60;;;3.70;51.60;;;;;;4996500;28;20030;-75
2022/03/12 03:29:16;;;;;;;27.17;10.95;;;3.60;51.70;;;;;;4995233;28;20114;-74
2022/03/12 03:31:42;;;;;;;25.42;11.05;;;3.70;51.90;;;;;;4995213;28;20022;-76
2022/03/12 03:34:07;;;;;;;29.92;11.25;;;3.70;51.90;;;;;;4995655;28;20514;-77
2022/03/12 03:36:34;;;;;;;25.45;11.02;;;3.70;51.90;;;;;;4977709;28;20076;-76
2022/03/12 03:38:59;;;;;;;29.15;10.30;;;3.60;51.50;;;;;;4996343;28;20037;-76
2022/03/12 03:41:25;;;;;;;23.05;10.40;;;3.60;51.70;;;;;;4995552;28;20034;-75
2022/03/12 03:43:51;;;;;;;23.50;9.98;;;3.50;51.60;;;;;;4995132;28;20512;-76
2022/03/12 03:46:20;;;;;;;24.33;9.95;;;3.50;51.60;;;;;;4995622;28;20049;-78
2022/03/12 03:48:49;;;;;;;26.15;10.07;;;3.60;51.60;;;;;;4995329;28;20106;-77
2022/03/12 03:51:15;;;;;;;24.10;9.98;;;3.60;51.50;;;;;;4995248;28;20015;-77
2022/03/12 03:53:40;;;;;;;21.05;10.00;;;3.50;51.60;;;;;;4995169;28;20363;-77
2022/03/12 03:56:06;;;;;;;26.55;11.00;;;3.50;51.90;;;;;;5000008;28;20027;-75
2022/03/12 03:58:34;;;;;;;24.58;10.88;;;3.50;51.90;;;;;;5000580;28;20033;-76
2022/03/12 04:01:03;;;;;;;23.95;11.05;;;3.50;51.90;;;;;;5002801;28;20026;-74
2022/03/12 04:03:32;;;;;;;23.50;10.35;;;3.50;51.80;;;;;;4995906;28;20438;-77
2022/03/12 04:05:59;;;;;;;23.10;11.15;;;3.60;51.70;;;;;;4996719;28;20026;-78
2022/03/12 04:08:25;;;;;;;25.20;11.27;;;3.60;51.90;;;;;;5015701;28;20037;-78
2022/03/12 04:10:50;;;;;;;29.10;10.93;;;3.50;51.80;;;;;;5015254;28;20015;-80
2022/03/12 04:13:20;;;;;;;23.77;10.15;;;3.60;51.90;;;;;;5015045;28;20359;-79
2022/03/12 04:15:47;;;;;;;23.77;10.43;;;3.50;51.90;;;;;;5017599;28;20065;-77
2022/03/12 04:18:18;;;;;;;25.88;10.73;;;3.40;52.00;;;;;;5017483;28;20074;-78
2022/03/12 04:20:47;;;;;;;20.85;10.25;;;3.50;52.10;;;;;;5011350;28;20141;-78
2022/03/12 04:23:18;;;;;;;28.70;11.02;;;3.40;52.20;;;;;;5009412;28;20026;-79
2022/03/12 04:25:45;;;;;;;21.02;10.43;;;3.40;52.00;;;;;;5007080;28;20023;-81
2022/03/12 04:28:10;;;;;;;24.23;10.43;;;3.40;52.00;;;;;;5015916;28;20031;-78
2022/03/12 04:30:37;;;;;;;27.00;9.98;;;3.40;52.10;;;;;;4999473;28;20045;-79
2022/03/12 04:33:02;;;;;;;27.20;10.90;;;3.40;52.10;;;;;;5009456;28;20040;-79
2022/03/12 04:35:28;;;;;;;22.05;10.35;;;3.30;52.00;;;;;;5012826;28;20030;-78
2022/03/12 04:37:54;;;;;;;27.63;10.63;;;3.30;52.10;;;;;;4997410;28;20049;-80
2022/03/12 04:40:25;;;;;;;29.58;10.63;;;3.20;52.30;;;;;;5013058;28;20029;-78
2022/03/12 04:42:51;;;;;;;29.17;10.98;;;3.20;52.30;;;;;;5006172;28;20030;-79
2022/03/12 04:45:23;;;;;;;24.10;10.70;;;3.20;52.30;;;;;;4998583;28;20547;-79
2022/03/12 04:47:50;;;;;;;20.35;9.98;;;3.20;52.60;;;;;;4999297;28;20050;-79
2022/03/12 04:50:18;;;;;;;24.90;10.80;;;3.10;52.50;;;;;;4997177;28;20019;-78
2022/03/12 04:52:46;;;;;;;21.83;10.40;;;3.10;52.50;;;;;;4977906;28;20041;-77
2022/03/12 04:55:14;;;;;;;30.20;11.50;;;3.10;52.60;;;;;;4995320;28;20026;-78
2022/03/12 04:57:41;;;;;;;22.05;10.85;;;3.00;52.70;;;;;;4977209;28;20026;-77
2022/03/12 05:00:15;;;;;;;24.45;10.07;;;3.10;53.10;;;;;;4994571;28;20026;-78
2022/03/12 05:02:41;;;;;;;21.80;10.27;;;3.10;52.40;;;;;;4998622;28;20026;-75
2022/03/12 05:05:11;;;;;;;22.25;10.85;;;3.10;52.60;;;;;;5002210;28;20033;-77
2022/03/12 05:07:37;;;;;;;25.52;10.32;;;3.00;52.80;;;;;;5003585;28;20022;-77
2022/03/12 05:10:05;;;;;;;21.73;10.32;;;3.10;52.80;;;;;;5005617;28;20042;-76
2022/03/12 05:12:31;;;;;;;22.67;10.52;;;3.00;52.90;;;;;;5003912;28;20019;-76
2022/03/12 05:14:58;;;;;;;26.48;10.60;;;3.00;52.90;;;;;;4993646;28;20045;-81
2022/03/12 05:17:24;;;;;;;22.40;9.48;;;3.00;53.10;;;;;;5009181;28;20082;-79
2022/03/12 05:19:50;;;;;;;22.23;10.13;;;2.90;53.20;;;;;;5009508;28;20034;-79
2022/03/12 05:22:15;;;;;;;22.48;9.70;;;3.00;53.40;;;;;;4992487;28;20061;-78
2022/03/12 05:24:41;;;;;;;23.85;10.38;;;3.00;53.30;;;;;;4992752;28;20022;-79
2022/03/12 05:27:08;;;;;;;28.35;10.48;;;2.90;53.40;;;;;;5009410;28;20034;-79
2022/03/12 05:29:34;;;;;;;22.45;10.50;;;2.90;53.50;;;;;;5012483;28;20018;-78
2022/03/12 05:31:59;;;;;;;30.23;11.45;;;2.80;53.50;;;;;;5006491;28;20101;-77
2022/03/12 05:34:25;;;;;;;26.58;11.90;;;2.90;53.70;;;;;;4997049;28;20476;-76
2022/03/12 05:36:51;;;;;;;24.73;11.15;;;2.90;53.90;;;;;;5004645;28;20407;-78
2022/03/12 05:39:17;;;;;;;21.33;9.88;;;2.90;53.80;;;;;;5012403;28;20011;-78
2022/03/12 05:41:44;;;;;;;22.50;10.82;;;2.90;53.80;;;;;;5009108;28;20030;-79
2022/03/12 05:44:14;;;;;;;29.85;12.73;;;2.90;53.70;;;;;;5002603;28;20037;-80
2022/03/12 05:46:41;;;;;;;40.83;11.68;;;2.90;54.50;;;;;;5001578;28;20026;-80
2022/03/12 05:49:07;;;;;;;25.50;11.40;;;2.80;53.70;;;;;;4999396;28;20030;-80
2022/03/12 05:51:33;;;;;;;23.67;10.13;;;2.90;53.50;;;;;;4999659;28;20050;-78
2022/03/12 05:53:58;;;;;;;22.48;9.98;;;2.90;53.40;;;;;;4998466;28;20037;-79
2022/03/12 05:56:24;;;;;;;22.13;10.32;;;2.80;53.40;;;;;;4996628;28;20373;-78
2022/03/12 05:58:49;;;;;;;22.50;10.55;;;2.70;53.80;;;;;;4998086;28;20452;-79
2022/03/12 06:01:15;;;;;;;20.98;9.60;;;2.60;53.80;;;;;;4998907;28;20025;-80
2022/03/12 06:03:41;;;;;;;25.38;10.32;;;2.60;53.90;;;;;;4995981;28;20041;-76
2022/03/12 06:06:06;;;;;;;19.63;9.85;;;2.60;53.80;;;;;;4995913;28;20027;-76
2022/03/12 06:08:33;;;;;;;27.70;10.52;;;2.60;53.90;;;;;;4995488;28;20030;-77
2022/03/12 06:11:00;;;;;;;26.30;10.68;;;2.60;53.80;;;;;;4993565;28;20038;-76
2022/03/12 06:13:28;;;;;;;25.48;10.20;;;2.60;53.70;;;;;;4993431;28;20033;-76
2022/03/12 06:16:02;;;;;;;25.73;10.65;;;2.60;53.40;;;;;;4993396;28;20014;-76
2022/03/12 06:18:32;;;;;;;30.02;10.35;;;2.60;53.40;;;;;;4993541;28;20049;-77
2022/03/12 06:20:59;;;;;;;22.70;9.77;;;2.60;53.40;;;;;;4993385;28;20444;-77
2022/03/12 06:23:25;;;;;;;23.00;9.95;;;2.70;53.20;;;;;;4993531;28;20495;-77
2022/03/12 06:25:51;;;;;;;23.95;9.40;;;2.70;53.00;;;;;;4996206;28;20026;-76
2022/03/12 06:28:17;;;;;;;24.65;9.88;;;2.70;53.00;;;;;;5003600;28;20026;-78
2022/03/12 06:30:43;;;;;;;21.77;9.43;;;2.70;52.90;;;;;;4996597;28;20036;-77
2022/03/12 06:33:09;;;;;;;24.25;10.43;;;2.80;52.90;;;;;;4993795;28;20026;-78
2022/03/12 06:35:35;;;;;;;21.65;9.70;;;2.80;52.80;;;;;;4993230;28;20026;-76
2022/03/12 06:38:01;;;;;;;24.95;9.73;;;2.90;52.70;;;;;;4993620;28;20022;-77
2022/03/12 06:40:28;;;;;;;25.75;10.15;;;3.00;52.40;;;;;;4985135;28;20058;-77
2022/03/12 06:42:56;;;;;;;21.88;9.85;;;2.90;52.30;;;;;;4979617;28;20026;-77
2022/03/12 06:45:23;;;;;;;19.52;9.50;;;3.00;52.00;;;;;;4993235;28;20046;-78
2022/03/12 06:47:48;;;;;;;21.45;9.95;;;3.20;51.80;;;;;;5000915;28;20027;-76
2022/03/12 06:50:17;;;;;;;20.08;8.98;;;3.20;51.90;;;;;;5001160;28;20018;-78
2022/03/12 06:52:45;;;;;;;22.60;9.80;;;3.20;51.80;;;;;;5000182;28;20027;-76
2022/03/12 06:55:11;;;;;;;22.27;9.30;;;3.20;51.90;;;;;;4979916;28;20081;-77
2022/03/12 06:57:37;;;;;;;24.58;9.15;;;3.30;51.70;;;;;;5000758;28;20026;-76
2022/03/12 07:00:06;;;;;;;19.48;9.23;;;3.30;51.30;;;;;;4999992;28;20026;-74
2022/03/12 07:02:31;;;;;;;25.95;8.88;;;3.30;51.40;;;;;;4999313;28;20038;-78
2022/03/12 07:04:57;;;;;;;24.33;10.02;;;3.20;51.70;;;;;;5000270;28;20361;-76
2022/03/12 07:07:22;;;;;;;20.95;9.63;;;3.30;51.60;;;;;;4997280;28;20491;-77
2022/03/12 07:09:48;;;;;;;17.48;8.98;;;3.30;51.30;;;;;;4998173;28;20094;-77
2022/03/12 07:12:13;;;;;;;28.13;9.70;;;3.40;51.20;;;;;;5000677;28;20064;-77
2022/03/12 07:14:39;;;;;;;25.27;9.60;;;3.50;51.00;;;;;;5000565;28;20097;-76
2022/03/12 07:17:04;;;;;;;20.67;8.93;;;3.50;50.90;;;;;;4996645;28;20026;-75
2022/03/12 07:19:30;;;;;;;23.02;9.95;;;3.60;51.00;;;;;;5034083;23;20042;-77
2022/03/12 07:21:56;;;;;;;22.20;10.35;;;3.70;51.00;;;;;;5035440;28;20037;-75
2022/03/12 07:24:21;;;;;;;21.08;9.32;;;3.70;50.90;;;;;;5037416;28;20044;-77
2022/03/12 07:26:47;;;;;;;21.67;9.50;;;3.80;50.80;;;;;;5036478;28;20052;-75
2022/03/12 07:29:13;;;;;;;22.42;9.45;;;3.90;50.50;;;;;;5037028;28;20423;-75
2022/03/12 07:31:39;;;;;;;18.85;8.85;;;4.00;50.30;;;;;;5037974;28;20029;-74
2022/03/12 07:34:06;;;;;;;27.25;9.02;;;4.10;50.50;;;;;;5037471;28;20468;-75
2022/03/12 07:36:31;;;;;;;18.50;8.82;;;4.10;50.20;;;;;;5037656;28;20028;-73
2022/03/12 07:39:02;;;;;;;21.27;9.73;;;4.20;50.20;;;;;;5051253;28;20022;-74
2022/03/12 07:41:28;;;;;;;19.15;9.02;;;4.20;49.70;;;;;;5046999;28;20026;-74
2022/03/12 07:43:54;;;;;;;21.30;8.95;;;4.30;50.10;;;;;;5052994;28;20029;-76
2022/03/12 07:46:21;;;;;;;27.20;9.40;;;4.40;50.00;;;;;;5056517;28;20069;-74
2022/03/12 07:48:46;;;;;;;22.00;9.73;;;4.60;49.80;;;;;;5058540;28;20045;-75
2022/03/12 07:51:13;;;;;;;23.17;9.43;;;4.70;49.20;;;;;;5055112;28;20021;-73
2022/03/12 07:53:39;;;;;;;21.02;8.93;;;4.80;48.80;;;;;;5055460;28;20021;-74
2022/03/12 07:56:06;;;;;;;16.67;8.80;;;4.90;48.70;;;;;;5049336;28;20021;-73
2022/03/12 07:58:32;;;;;;;24.60;8.70;;;5.00;48.20;;;;;;5041772;28;20018;-74
2022/03/12 08:00:59;;;;;;;20.02;9.55;;;5.10;48.20;;;;;;5035778;28;20021;-75
2022/03/12 08:03:25;;;;;;;21.85;8.80;;;5.20;48.10;;;;;;5035053;28;20030;-75
2022/03/12 08:05:52;;;;;;;15.65;8.27;;;5.30;48.20;;;;;;5035216;28;20025;-75
2022/03/12 08:08:18;;;;;;;18.73;8.63;;;5.40;47.70;;;;;;5033979;28;20025;-74
2022/03/12 08:13:29;;;;;;;19.25;8.57;;;5.50;46.90;;;;;;5034749;28;20029;-74
2022/03/12 08:15:55;;;;;;;20.27;8.50;;;5.60;47.30;;;;;;5054092;28;20036;-74
2022/03/12 08:18:22;;;;;;;20.67;9.23;;;5.70;46.90;;;;;;5055561;28;20516;-77
2022/03/12 08:20:48;;;;;;;17.80;8.48;;;5.80;46.80;;;;;;5055099;28;20531;-74
2022/03/12 08:23:14;;;;;;;15.77;8.48;;;5.90;46.60;;;;;;5055401;28;20408;-75
2022/03/12 08:25:40;;;;;;;22.85;9.35;;;5.90;46.30;;;;;;5056883;28;20025;-74
2022/03/12 08:28:06;;;;;;;16.50;7.95;;;6.00;46.30;;;;;;5057358;28;20124;-74
2022/03/12 08:30:33;;;;;;;18.00;8.55;;;6.00;45.90;;;;;;5062209;28;20495;-75
2022/03/12 08:32:58;;;;;;;17.80;8.45;;;5.90;45.90;;;;;;5064618;28;20067;-74
2022/03/12 08:35:24;;;;;;;15.88;8.20;;;5.90;46.10;;;;;;5062381;28;20057;-74
2022/03/12 08:37:50;;;;;;;15.43;7.65;;;6.00;46.10;;;;;;5061282;28;20029;-75
2022/03/12 08:40:16;;;;;;;17.33;9.05;;;6.00;46.10;;;;;;5062220;28;20017;-74
2022/03/12 08:42:42;;;;;;;18.27;8.95;;;6.00;46.00;;;;;;5057626;28;20389;-73
2022/03/12 08:45:10;;;;;;;15.98;8.07;;;6.20;46.10;;;;;;5054330;28;20028;-74
2022/03/12 08:47:36;;;;;;;21.58;8.68;;;6.20;46.10;;;;;;5054334;28;20021;-73
2022/03/12 08:50:03;;;;;;;17.63;7.55;;;6.30;46.00;;;;;;5053969;28;20077;-73
2022/03/12 08:52:28;;;;;;;17.55;8.43;;;6.30;45.80;;;;;;5055023;28;20021;-74
2022/03/12 08:54:54;;;;;;;19.35;8.30;;;6.20;46.00;;;;;;5056984;28;20031;-75
2022/03/12 08:57:20;;;;;;;16.45;8.20;;;6.30;45.90;;;;;;5054413;28;20021;-74
2022/03/12 08:59:46;;;;;;;19.70;8.50;;;6.30;46.20;;;;;;5053902;28;20100;-75
2022/03/12 09:02:12;;;;;;;17.58;7.95;;;6.40;45.90;;;;;;5055281;28;20029;-75
2022/03/12 09:04:38;;;;;;;16.17;8.88;;;6.40;46.00;;;;;;5054817;28;20032;-75
2022/03/12 09:07:04;;;;;;;20.00;8.60;;;6.50;46.10;;;;;;5054870;28;20044;-74
2022/03/12 09:09:30;;;;;;;20.25;8.35;;;6.60;45.60;;;;;;5054565;28;20143;-75
2022/03/12 09:11:56;;;;;;;24.52;11.10;;;6.80;45.80;;;;;;5054104;28;20025;-75
2022/03/12 09:14:22;;;;;;;40.83;16.27;;;7.20;45.30;;;;;;5052646;28;20044;-75
2022/03/12 09:16:48;;;;;;;15.45;8.02;;;7.70;44.60;;;;;;5051558;28;20013;-72
2022/03/12 09:19:13;;;;;;;22.15;8.68;;;8.20;43.50;;;;;;5052772;28;20052;-74
2022/03/12 09:21:39;;;;;;;20.73;9.07;;;8.90;42.90;;;;;;5052548;28;20029;-74
2022/03/12 09:24:06;;;;;;;16.20;8.25;;;9.70;41.60;;;;;;5052672;28;20047;-75
2022/03/12 09:26:32;;;;;;;19.23;8.93;;;10.40;40.30;;;;;;5052414;28;20029;-74
2022/03/12 09:28:57;;;;;;;17.95;7.93;;;11.30;39.40;;;;;;5052569;28;20417;-74
2022/03/12 09:31:24;;;;;;;21.50;8.70;;;11.90;38.40;;;;;;5051844;28;20025;-76
2022/03/12 09:33:49;;;;;;;16.70;7.72;;;12.80;37.40;;;;;;5053827;28;20020;-76
2022/03/12 09:36:16;;;;;;;17.25;7.72;;;13.50;35.60;;;;;;5055547;28;20100;-77
2022/03/12 09:38:42;;;;;;;15.27;8.10;;;13.80;34.90;;;;;;5055611;28;20017;-74
2022/03/12 09:41:07;;;;;;;15.85;7.57;;;14.20;34.70;;;;;;5054241;28;20028;-76
2022/03/12 09:43:34;;;;;;;16.17;7.82;;;14.90;33.50;;;;;;5055130;28;20060;-74
2022/03/12 09:46:00;;;;;;;18.52;8.40;;;15.10;32.80;;;;;;5051850;28;20021;-75
2022/03/12 09:48:25;;;;;;;22.27;7.97;;;15.20;32.60;;;;;;5052439;28;20029;-75
2022/03/12 09:50:51;;;;;;;16.58;7.35;;;15.20;32.80;;;;;;5053959;28;20436;-77
2022/03/12 09:53:17;;;;;;;18.77;8.93;;;15.30;32.30;;;;;;5052437;28;20393;-74
2022/03/12 09:55:42;;;;;;;16.77;7.10;;;15.00;32.20;;;;;;5051547;28;20466;-75
2022/03/12 09:58:08;;;;;;;17.38;8.07;;;14.90;32.50;;;;;;5053665;28;20025;-73
2022/03/12 10:00:34;;;;;;;13.80;7.85;;;15.00;32.90;;;;;;5051838;28;20060;-73
2022/03/12 10:03:00;;;;;;;14.98;7.47;;;15.10;32.30;;;;;;5052656;28;20021;-74
2022/03/12 10:05:27;;;;;;;13.43;7.75;;;15.10;32.00;;;;;;5052959;28;20049;-73
2022/03/12 10:07:52;;;;;;;15.40;7.40;;;15.20;31.70;;;;;;5052825;28;20486;-76
2022/03/12 10:10:22;;;;;;;12.20;7.18;;;15.20;31.90;;;;;;5056558;28;20036;-77
2022/03/12 10:12:49;;;;;;;14.63;7.43;;;15.20;32.10;;;;;;5058285;28;20083;-76
2022/03/12 10:15:17;;;;;;;16.23;7.18;;;15.60;31.90;;;;;;5056226;28;20046;-76
2022/03/12 10:17:43;;;;;;;17.77;7.40;;;16.20;33.40;;;;;;5053944;28;20033;-74
2022/03/12 10:20:11;;;;;;;16.67;7.75;;;16.50;31.00;;;;;;5053482;28;20039;-76
2022/03/12 10:22:38;;;;;;;14.20;7.50;;;16.90;30.70;;;;;;5053983;28;20492;-74
2022/03/12 10:25:05;;;;;;;13.55;6.85;;;17.00;30.30;;;;;;5052724;28;20492;-78
2022/03/12 10:27:31;;;;;;;13.63;7.18;;;17.40;30.00;;;;;;5054790;28;20100;-75
2022/03/12 10:29:57;;;;;;;13.65;6.90;;;17.70;29.70;;;;;;5052191;28;20025;-75
2022/03/12 10:32:32;;;;;;;15.82;7.50;;;17.60;29.60;;;;;;5053131;28;20032;-76
2022/03/12 10:35:01;;;;;;;11.07;6.90;;;18.10;29.80;;;;;;5056169;28;20025;-76
2022/03/12 10:37:30;;;;;;;11.93;7.43;;;18.50;29.00;;;;;;5052431;28;20017;-75
2022/03/12 10:40:08;;;;;;;17.08;7.53;;;18.80;28.90;;;;;;5052023;28;20029;-75
2022/03/12 10:42:35;;;;;;;14.57;7.47;;;18.90;28.30;;;;;;5053323;28;20051;-77
2022/03/12 10:45:10;;;;;;;11.68;6.38;;;18.60;28.70;;;;;;5052774;28;20021;-77
2022/03/12 10:47:43;;;;;;;;;;;18.90;28.70;;;;;;5053143;28;20454;-76
2022/03/12 10:50:14;;;;;;;17.80;7.55;;;19.50;28.70;;;;;;5052097;28;20034;-76
2022/03/12 10:52:44;;;;;;;11.90;7.53;;;20.00;27.90;;;;;;5052502;28;20028;-74
2022/03/12 10:55:27;;;;;;;15.48;7.10;;;20.50;27.50;;;;;;5053010;28;20021;-74
2022/03/12 10:57:57;;;;;;;17.02;6.95;;;20.70;27.70;;;;;;5051986;28;20147;-74
2022/03/12 11:00:28;;;;;;;20.75;7.40;;;20.60;27.50;;;;;;5051803;28;20044;-75
2022/03/12 11:02:59;;;;;;;16.10;7.13;;;21.00;27.50;;;;;;5054081;28;20501;-75
2022/03/12 11:05:35;;;;;;;14.30;8.52;;;21.50;27.40;;;;;;5051948;28;20032;-74
2022/03/12 11:08:15;;;;;;;13.43;7.57;;;21.60;27.00;;;;;;5051596;28;20076;-75
2022/03/12 11:10:52;;;;;;;15.38;7.50;;;21.70;26.80;;;;;;5051382;28;20156;-75
2022/03/12 11:13:47;;;;;;;12.43;7.55;;;21.60;27.20;;;;;;5052307;28;20033;-75
2022/03/12 11:16:34;;;;;;;12.55;7.07;;;21.60;27.20;;;;;;5052387;28;20409;-76
2022/03/12 11:19:07;;;;;;;15.32;7.53;;;21.90;26.90;;;;;;5051922;28;20037;-74
2022/03/12 11:21:44;;;;;;;16.13;7.45;;;22.00;26.70;;;;;;5054808;28;20115;-74
2022/03/12 11:24:22;;;;;;;10.52;7.32;;;22.20;26.60;;;;;;5052656;28;20406;-74
2022/03/12 11:26:51;;;;;;;18.35;6.75;;;21.90;26.40;;;;;;5054835;28;20386;-74
2022/03/12 11:29:19;;;;;;;13.00;7.45;;;22.00;27.10;;;;;;5052312;28;20580;-75
2022/03/12 11:31:51;;;;;;;13.55;6.88;;;22.10;26.80;;;;;;5053445;28;20076;-75
2022/03/12 11:34:24;;;;;;;14.88;7.38;;;;;;;;;;5050489;28;20029;-76
2022/03/12 11:36:56;;;;;;;12.85;7.35;;;;;;;;;;5052527;28;20025;-76
2022/03/12 11:39:29;;;;;;;16.20;7.05;;;;;;;;;;5061166;28;20068;-77
2022/03/12 11:42:14;;;;;;;17.48;7.13;;;;;;;;;;5056439;28;20024;-78
2022/03/12 11:44:41;;;;;;;14.00;7.43;;;;;;;;;;5055524;28;20017;-75
2022/03/12 11:47:07;;;;;;;13.70;8.13;;;;;;;;;;5055374;28;20489;-76
2022/03/12 11:49:34;;;;;;;15.45;7.55;;;;;;;;;;5053757;28;20036;-75
2022/03/12 11:52:04;;;;;;;15.07;7.18;;;;;;;;;;5056088;28;20525;-76
2022/03/12 11:54:30;;;;;;;10.82;6.85;;;;;;;;;;5056087;28;20025;-76
2022/03/12 11:56:58;;;;;;;13.73;6.93;;;;;;;;;;5060413;28;20021;-74
2022/03/12 11:59:24;;;;;;;16.95;6.68;;;;;;;;;;5063922;28;20482;-77
2022/03/12 12:02:01;;;;;;;14.93;7.45;;;;;;;;;;5065417;28;20064;-76
2022/03/12 12:04:31;;;;;;;11.57;7.13;;;;;;;;;;5056039;28;20021;-75
2022/03/12 12:06:57;;;;;;;12.70;7.35;;;22.70;26.60;;;;;;5054750;28;20052;-75
2022/03/12 12:09:22;;;;;;;11.32;7.25;;;23.90;26.20;;;;;;5055425;28;20049;-76
2022/03/12 12:11:48;;;;;;;10.60;7.28;;;24.00;25.40;;;;;;5055841;28;20505;-75
2022/03/12 12:14:14;;;;;;;16.50;7.43;;;24.10;25.20;;;;;;5060416;28;20025;-75
2022/03/12 12:16:43;;;;;;;12.88;7.82;;;23.50;25.50;;;;;;5058290;28;20017;-76
2022/03/12 12:19:09;;;;;;;11.25;6.55;;;22.90;25.80;;;;;;5056290;28;20028;-76
2022/03/12 12:21:34;;;;;;;12.48;7.00;;;22.80;26.00;;;;;;5058205;28;20032;-77
2022/03/12 12:24:27;;;;;;;13.35;7.93;;;22.70;26.30;;;;;;5059928;28;20037;-77
2022/03/12 12:27:03;;;;;;;15.82;7.97;;;22.60;26.30;;;;;;5062518;28;20029;-79
2022/03/12 12:29:41;;;;;;;14.05;7.22;;;22.70;26.30;;;;;;5059748;28;20512;-76
2022/03/12 12:32:11;;;;;;;11.77;7.05;;;22.90;26.10;;;;;;5058838;28;20054;-76
2022/03/12 12:34:56;;;;;;;12.30;6.90;;;22.90;26.60;;;;;;5057256;28;20044;-76
2022/03/12 12:37:23;;;;;;;15.27;7.15;;;23.40;26.20;;;;;;5059923;28;20017;-76
2022/03/12 12:39:48;;;;;;;14.90;8.27;;;23.50;25.90;;;;;;5061076;28;20064;-76
2022/03/12 12:42:14;;;;;;;20.00;7.90;;;23.70;25.80;;;;;;5068061;28;20445;-76
2022/03/12 12:44:39;;;;;;;16.25;7.50;;;23.30;25.80;;;;;;5062294;28;20074;-75
2022/03/12 12:47:07;;;;;;;15.52;7.80;;;22.70;26.10;;;;;;5062773;28;20029;-75
2022/03/12 12:49:43;;;;;;;18.10;7.47;;;22.80;26.30;;;;;;5058921;28;20060;-75